sensor_id;sensor_type;location;lat;lon;timestamp;P1;durP1;ratioP1;P2;durP2;ratioP2
48999;SDS011;34808;48.144;17.158;2022-11-20T00:00:27;33.88;;;21.10;;
48999;SDS011;34808;48.144;17.158;2022-11-20T00:02:52;32.53;;;20.17;;
48999;SDS011;34808;48.144;17.158;2022-11-20T00:05:17;30.48;;;19.50;;
48999;SDS011;34808;48.144;17.158;2022-11-20T00:07:43;33.85;;;20.17;;
48999;SDS011;34808;48.144;17.158;2022-11-20T00:10:08;32.55;;;20.83;;
48999;SDS011;34808;48.144;17.158;2022-11-20T00:12:34;33.85;;;22.30;;
48999;SDS011;34808;48.144;17.158;2022-11-20T00:14:59;29.45;;;19.38;;
48999;SDS011;34808;48.144;17.158;2022-11-20T00:17:25;35.45;;;20.42;;
48999;SDS011;34808;48.144;17.158;2022-11-20T00:19:50;31.33;;;19.58;;
48999;SDS011;34808;48.144;17.158;2022-11-20T00:22:15;33.15;;;21.08;;
48999;SDS011;34808;48.144;17.158;2022-11-20T00:24:41;32.35;;;20.25;;
48999;SDS011;34808;48.144;17.158;2022-11-20T00:27:06;34.83;;;22.27;;
48999;SDS011;34808;48.144;17.158;2022-11-20T00:29:31;34.47;;;20.92;;
48999;SDS011;34808;48.144;17.158;2022-11-20T00:31:57;30.75;;;19.92;;
48999;SDS011;34808;48.144;17.158;2022-11-20T00:34:22;33.03;;;21.10;;
48999;SDS011;34808;48.144;17.158;2022-11-20T00:36:47;29.40;;;18.70;;
48999;SDS011;34808;48.144;17.158;2022-11-20T00:39:13;32.28;;;20.45;;
48999;SDS011;34808;48.144;17.158;2022-11-20T00:41:38;32.60;;;19.88;;
48999;SDS011;34808;48.144;17.158;2022-11-20T00:44:03;32.20;;;20.13;;
48999;SDS011;34808;48.144;17.158;2022-11-20T00:46:29;29.05;;;19.00;;
48999;SDS011;34808;48.144;17.158;2022-11-20T00:48:54;34.20;;;21.13;;
48999;SDS011;34808;48.144;17.158;2022-11-20T00:51:21;32.63;;;20.48;;
48999;SDS011;34808;48.144;17.158;2022-11-20T00:53:48;32.55;;;19.05;;
48999;SDS011;34808;48.144;17.158;2022-11-20T00:56:15;27.65;;;18.80;;
48999;SDS011;34808;48.144;17.158;2022-11-20T00:58:43;32.05;;;19.65;;
48999;SDS011;34808;48.144;17.158;2022-11-20T01:01:11;36.95;;;20.85;;
48999;SDS011;34808;48.144;17.158;2022-11-20T01:03:37;29.60;;;18.05;;
48999;SDS011;34808;48.144;17.158;2022-11-20T01:06:23;32.45;;;20.02;;
48999;SDS011;34808;48.144;17.158;2022-11-20T01:08:50;30.55;;;19.58;;
48999;SDS011;34808;48.144;17.158;2022-11-20T01:11:18;29.52;;;19.75;;
48999;SDS011;34808;48.144;17.158;2022-11-20T01:13:46;31.73;;;19.40;;
48999;SDS011;34808;48.144;17.158;2022-11-20T01:16:13;31.90;;;19.67;;
48999;SDS011;34808;48.144;17.158;2022-11-20T01:18:40;30.50;;;19.60;;
48999;SDS011;34808;48.144;17.158;2022-11-20T01:21:08;27.83;;;18.38;;
48999;SDS011;34808;48.144;17.158;2022-11-20T01:23:38;29.48;;;19.20;;
48999;SDS011;34808;48.144;17.158;2022-11-20T01:26:09;30.45;;;18.90;;
48999;SDS011;34808;48.144;17.158;2022-11-20T01:28:36;38.07;;;20.57;;
48999;SDS011;34808;48.144;17.158;2022-11-20T01:31:10;30.50;;;19.55;;
48999;SDS011;34808;48.144;17.158;2022-11-20T01:33:37;32.83;;;20.42;;
48999;SDS011;34808;48.144;17.158;2022-11-20T01:36:04;30.13;;;21.05;;
48999;SDS011;34808;48.144;17.158;2022-11-20T01:38:30;29.88;;;18.02;;
48999;SDS011;34808;48.144;17.158;2022-11-20T01:40:56;29.70;;;19.58;;
48999;SDS011;34808;48.144;17.158;2022-11-20T01:43:22;30.90;;;19.40;;
48999;SDS011;34808;48.144;17.158;2022-11-20T01:48:13;32.22;;;19.63;;
48999;SDS011;34808;48.144;17.158;2022-11-20T01:50:39;28.55;;;17.98;;
48999;SDS011;34808;48.144;17.158;2022-11-20T01:53:07;32.35;;;18.98;;
48999;SDS011;34808;48.144;17.158;2022-11-20T01:55:45;30.23;;;19.00;;
48999;SDS011;34808;48.144;17.158;2022-11-20T01:58:14;30.58;;;19.48;;
48999;SDS011;34808;48.144;17.158;2022-11-20T02:00:41;28.25;;;18.20;;
48999;SDS011;34808;48.144;17.158;2022-11-20T02:03:08;29.77;;;17.70;;
48999;SDS011;34808;48.144;17.158;2022-11-20T02:05:47;28.55;;;17.75;;
48999;SDS011;34808;48.144;17.158;2022-11-20T02:08:17;28.65;;;18.27;;
48999;SDS011;34808;48.144;17.158;2022-11-20T02:10:43;29.63;;;18.40;;
48999;SDS011;34808;48.144;17.158;2022-11-20T02:13:08;28.42;;;18.30;;
48999;SDS011;34808;48.144;17.158;2022-11-20T02:15:53;34.92;;;20.85;;
48999;SDS011;34808;48.144;17.158;2022-11-20T02:18:19;31.95;;;20.17;;
48999;SDS011;34808;48.144;17.158;2022-11-20T02:20:46;30.13;;;19.80;;
48999;SDS011;34808;48.144;17.158;2022-11-20T02:25:52;29.73;;;18.77;;
48999;SDS011;34808;48.144;17.158;2022-11-20T02:28:19;32.65;;;20.73;;
48999;SDS011;34808;48.144;17.158;2022-11-20T02:30:45;30.35;;;20.17;;
48999;SDS011;34808;48.144;17.158;2022-11-20T02:33:10;31.13;;;20.35;;
48999;SDS011;34808;48.144;17.158;2022-11-20T02:35:40;33.78;;;21.08;;
48999;SDS011;34808;48.144;17.158;2022-11-20T02:38:10;29.15;;;18.30;;
48999;SDS011;34808;48.144;17.158;2022-11-20T02:40:35;32.13;;;20.23;;
48999;SDS011;34808;48.144;17.158;2022-11-20T02:43:01;31.25;;;20.45;;
48999;SDS011;34808;48.144;17.158;2022-11-20T02:45:26;34.33;;;21.33;;
48999;SDS011;34808;48.144;17.158;2022-11-20T02:47:51;32.03;;;20.05;;
48999;SDS011;34808;48.144;17.158;2022-11-20T02:50:17;35.72;;;20.75;;
48999;SDS011;34808;48.144;17.158;2022-11-20T02:52:42;31.92;;;20.95;;
48999;SDS011;34808;48.144;17.158;2022-11-20T02:55:08;32.97;;;20.65;;
48999;SDS011;34808;48.144;17.158;2022-11-20T02:57:33;32.90;;;21.63;;
48999;SDS011;34808;48.144;17.158;2022-11-20T02:59:59;30.95;;;19.50;;
48999;SDS011;34808;48.144;17.158;2022-11-20T03:02:24;36.08;;;22.25;;
48999;SDS011;34808;48.144;17.158;2022-11-20T03:04:50;31.80;;;21.52;;
48999;SDS011;34808;48.144;17.158;2022-11-20T03:07:15;33.75;;;20.40;;
48999;SDS011;34808;48.144;17.158;2022-11-20T03:09:41;32.67;;;20.83;;
48999;SDS011;34808;48.144;17.158;2022-11-20T03:12:06;34.40;;;21.70;;
48999;SDS011;34808;48.144;17.158;2022-11-20T03:14:31;34.40;;;22.08;;
48999;SDS011;34808;48.144;17.158;2022-11-20T03:16:57;34.67;;;21.55;;
48999;SDS011;34808;48.144;17.158;2022-11-20T03:19:22;33.13;;;21.42;;
48999;SDS011;34808;48.144;17.158;2022-11-20T03:21:49;35.30;;;20.52;;
48999;SDS011;34808;48.144;17.158;2022-11-20T03:24:15;38.33;;;23.50;;
48999;SDS011;34808;48.144;17.158;2022-11-20T03:26:40;33.08;;;21.63;;
48999;SDS011;34808;48.144;17.158;2022-11-20T03:29:06;35.45;;;23.73;;
48999;SDS011;34808;48.144;17.158;2022-11-20T03:31:34;33.42;;;21.25;;
48999;SDS011;34808;48.144;17.158;2022-11-20T03:34:02;39.15;;;22.88;;
48999;SDS011;34808;48.144;17.158;2022-11-20T03:36:28;35.97;;;23.10;;
48999;SDS011;34808;48.144;17.158;2022-11-20T03:38:55;38.10;;;23.30;;
48999;SDS011;34808;48.144;17.158;2022-11-20T03:41:22;36.88;;;22.88;;
48999;SDS011;34808;48.144;17.158;2022-11-20T03:43:50;38.45;;;24.25;;
48999;SDS011;34808;48.144;17.158;2022-11-20T03:46:23;36.20;;;23.30;;
48999;SDS011;34808;48.144;17.158;2022-11-20T03:48:49;39.30;;;24.00;;
48999;SDS011;34808;48.144;17.158;2022-11-20T03:53:42;38.00;;;24.25;;
48999;SDS011;34808;48.144;17.158;2022-11-20T03:56:08;36.88;;;23.73;;
48999;SDS011;34808;48.144;17.158;2022-11-20T03:58:35;36.13;;;23.83;;
48999;SDS011;34808;48.144;17.158;2022-11-20T04:01:06;38.55;;;23.23;;
48999;SDS011;34808;48.144;17.158;2022-11-20T04:03:32;35.28;;;22.33;;
48999;SDS011;34808;48.144;17.158;2022-11-20T04:06:07;38.83;;;25.00;;
48999;SDS011;34808;48.144;17.158;2022-11-20T04:08:35;37.13;;;23.33;;
48999;SDS011;34808;48.144;17.158;2022-11-20T04:11:10;38.42;;;23.08;;
48999;SDS011;34808;48.144;17.158;2022-11-20T04:13:40;37.42;;;24.60;;
48999;SDS011;34808;48.144;17.158;2022-11-20T04:16:07;37.35;;;23.85;;
48999;SDS011;34808;48.144;17.158;2022-11-20T04:18:33;41.53;;;23.55;;
48999;SDS011;34808;48.144;17.158;2022-11-20T04:20:59;35.30;;;22.52;;
48999;SDS011;34808;48.144;17.158;2022-11-20T04:23:25;40.50;;;24.30;;
48999;SDS011;34808;48.144;17.158;2022-11-20T04:25:51;40.17;;;24.52;;
48999;SDS011;34808;48.144;17.158;2022-11-20T04:28:17;38.75;;;23.48;;
48999;SDS011;34808;48.144;17.158;2022-11-20T04:30:42;39.22;;;24.92;;
48999;SDS011;34808;48.144;17.158;2022-11-20T04:33:07;40.25;;;24.95;;
48999;SDS011;34808;48.144;17.158;2022-11-20T04:35:36;40.75;;;24.40;;
48999;SDS011;34808;48.144;17.158;2022-11-20T04:38:02;40.42;;;24.95;;
48999;SDS011;34808;48.144;17.158;2022-11-20T04:40:28;43.15;;;25.42;;
48999;SDS011;34808;48.144;17.158;2022-11-20T04:42:54;44.00;;;25.40;;
48999;SDS011;34808;48.144;17.158;2022-11-20T04:45:20;36.72;;;23.40;;
48999;SDS011;34808;48.144;17.158;2022-11-20T04:47:46;41.33;;;24.38;;
48999;SDS011;34808;48.144;17.158;2022-11-20T04:50:11;37.50;;;25.40;;
48999;SDS011;34808;48.144;17.158;2022-11-20T04:52:36;37.15;;;24.60;;
48999;SDS011;34808;48.144;17.158;2022-11-20T04:55:02;42.42;;;23.83;;
48999;SDS011;34808;48.144;17.158;2022-11-20T04:57:31;38.78;;;24.88;;
48999;SDS011;34808;48.144;17.158;2022-11-20T04:59:57;38.60;;;24.65;;
48999;SDS011;34808;48.144;17.158;2022-11-20T05:02:22;41.55;;;27.33;;
48999;SDS011;34808;48.144;17.158;2022-11-20T05:04:47;41.72;;;24.33;;
48999;SDS011;34808;48.144;17.158;2022-11-20T05:07:13;41.50;;;25.48;;
48999;SDS011;34808;48.144;17.158;2022-11-20T05:09:38;48.58;;;26.92;;
48999;SDS011;34808;48.144;17.158;2022-11-20T05:12:04;39.17;;;24.88;;
48999;SDS011;34808;48.144;17.158;2022-11-20T05:14:29;42.72;;;27.17;;
48999;SDS011;34808;48.144;17.158;2022-11-20T05:16:55;44.83;;;27.40;;
48999;SDS011;34808;48.144;17.158;2022-11-20T05:19:20;41.47;;;25.90;;
48999;SDS011;34808;48.144;17.158;2022-11-20T05:21:46;42.42;;;25.23;;
48999;SDS011;34808;48.144;17.158;2022-11-20T05:24:11;43.28;;;26.08;;
48999;SDS011;34808;48.144;17.158;2022-11-20T05:26:36;44.38;;;24.83;;
48999;SDS011;34808;48.144;17.158;2022-11-20T05:29:02;37.88;;;23.42;;
48999;SDS011;34808;48.144;17.158;2022-11-20T05:31:27;37.78;;;23.63;;
48999;SDS011;34808;48.144;17.158;2022-11-20T05:33:53;38.47;;;25.17;;
48999;SDS011;34808;48.144;17.158;2022-11-20T05:36:19;37.10;;;23.63;;
48999;SDS011;34808;48.144;17.158;2022-11-20T05:38:44;37.08;;;24.02;;
48999;SDS011;34808;48.144;17.158;2022-11-20T05:41:11;42.88;;;24.67;;
48999;SDS011;34808;48.144;17.158;2022-11-20T05:43:41;40.85;;;24.35;;
48999;SDS011;34808;48.144;17.158;2022-11-20T05:46:09;40.20;;;23.85;;
48999;SDS011;34808;48.144;17.158;2022-11-20T05:48:36;35.83;;;23.23;;
48999;SDS011;34808;48.144;17.158;2022-11-20T05:51:03;40.78;;;24.20;;
48999;SDS011;34808;48.144;17.158;2022-11-20T05:53:29;43.88;;;25.50;;
48999;SDS011;34808;48.144;17.158;2022-11-20T05:56:15;37.97;;;24.60;;
48999;SDS011;34808;48.144;17.158;2022-11-20T05:58:43;41.88;;;25.20;;
48999;SDS011;34808;48.144;17.158;2022-11-20T06:01:16;41.25;;;25.20;;
48999;SDS011;34808;48.144;17.158;2022-11-20T06:03:43;40.58;;;25.90;;
48999;SDS011;34808;48.144;17.158;2022-11-20T06:06:12;43.58;;;25.00;;
48999;SDS011;34808;48.144;17.158;2022-11-20T06:08:38;49.88;;;26.48;;
48999;SDS011;34808;48.144;17.158;2022-11-20T06:11:05;39.20;;;25.58;;
48999;SDS011;34808;48.144;17.158;2022-11-20T06:13:31;42.78;;;27.73;;
48999;SDS011;34808;48.144;17.158;2022-11-20T06:15:57;42.75;;;25.48;;
48999;SDS011;34808;48.144;17.158;2022-11-20T06:18:22;40.60;;;25.50;;
48999;SDS011;34808;48.144;17.158;2022-11-20T06:20:47;42.58;;;26.75;;
48999;SDS011;34808;48.144;17.158;2022-11-20T06:23:13;45.00;;;25.95;;
48999;SDS011;34808;48.144;17.158;2022-11-20T06:25:39;42.15;;;27.60;;
48999;SDS011;34808;48.144;17.158;2022-11-20T06:28:05;39.88;;;24.48;;
48999;SDS011;34808;48.144;17.158;2022-11-20T06:30:31;48.03;;;27.60;;
48999;SDS011;34808;48.144;17.158;2022-11-20T06:32:57;42.58;;;26.10;;
48999;SDS011;34808;48.144;17.158;2022-11-20T06:35:23;47.60;;;27.80;;
48999;SDS011;34808;48.144;17.158;2022-11-20T06:37:48;41.45;;;24.80;;
48999;SDS011;34808;48.144;17.158;2022-11-20T06:40:13;49.70;;;28.38;;
48999;SDS011;34808;48.144;17.158;2022-11-20T06:42:38;44.97;;;27.55;;
48999;SDS011;34808;48.144;17.158;2022-11-20T06:45:04;44.35;;;28.42;;
48999;SDS011;34808;48.144;17.158;2022-11-20T06:47:29;48.28;;;28.55;;
48999;SDS011;34808;48.144;17.158;2022-11-20T06:49:55;38.60;;;24.77;;
48999;SDS011;34808;48.144;17.158;2022-11-20T06:52:20;40.17;;;26.20;;
48999;SDS011;34808;48.144;17.158;2022-11-20T06:54:45;43.63;;;26.27;;
48999;SDS011;34808;48.144;17.158;2022-11-20T06:57:11;43.83;;;25.60;;
48999;SDS011;34808;48.144;17.158;2022-11-20T06:59:36;44.17;;;27.75;;
48999;SDS011;34808;48.144;17.158;2022-11-20T07:02:01;46.05;;;26.80;;
48999;SDS011;34808;48.144;17.158;2022-11-20T07:04:27;46.25;;;26.95;;
48999;SDS011;34808;48.144;17.158;2022-11-20T07:06:52;48.30;;;29.42;;
48999;SDS011;34808;48.144;17.158;2022-11-20T07:09:17;45.78;;;27.02;;
48999;SDS011;34808;48.144;17.158;2022-11-20T07:11:43;45.45;;;28.15;;
48999;SDS011;34808;48.144;17.158;2022-11-20T07:14:08;48.38;;;26.25;;
48999;SDS011;34808;48.144;17.158;2022-11-20T07:16:33;48.28;;;28.02;;
48999;SDS011;34808;48.144;17.158;2022-11-20T07:18:59;45.25;;;26.25;;
48999;SDS011;34808;48.144;17.158;2022-11-20T07:21:24;47.80;;;25.55;;
48999;SDS011;34808;48.144;17.158;2022-11-20T07:23:49;45.60;;;26.13;;
48999;SDS011;34808;48.144;17.158;2022-11-20T07:26:15;48.30;;;27.85;;
48999;SDS011;34808;48.144;17.158;2022-11-20T07:28:43;47.33;;;27.35;;
48999;SDS011;34808;48.144;17.158;2022-11-20T07:31:10;47.78;;;28.40;;
48999;SDS011;34808;48.144;17.158;2022-11-20T07:33:36;45.92;;;27.52;;
48999;SDS011;34808;48.144;17.158;2022-11-20T07:36:02;49.08;;;28.10;;
48999;SDS011;34808;48.144;17.158;2022-11-20T07:38:27;48.58;;;27.52;;
48999;SDS011;34808;48.144;17.158;2022-11-20T07:40:53;44.53;;;27.63;;
48999;SDS011;34808;48.144;17.158;2022-11-20T07:43:20;47.50;;;27.35;;
48999;SDS011;34808;48.144;17.158;2022-11-20T07:45:45;47.72;;;28.17;;
48999;SDS011;34808;48.144;17.158;2022-11-20T07:48:11;44.85;;;28.40;;
48999;SDS011;34808;48.144;17.158;2022-11-20T07:50:36;47.83;;;28.98;;
48999;SDS011;34808;48.144;17.158;2022-11-20T07:53:03;46.03;;;28.75;;
48999;SDS011;34808;48.144;17.158;2022-11-20T07:55:29;49.72;;;29.35;;
48999;SDS011;34808;48.144;17.158;2022-11-20T07:57:55;48.15;;;29.17;;
48999;SDS011;34808;48.144;17.158;2022-11-20T08:00:21;47.25;;;26.73;;
48999;SDS011;34808;48.144;17.158;2022-11-20T08:02:47;45.70;;;27.77;;
48999;SDS011;34808;48.144;17.158;2022-11-20T08:05:12;56.20;;;30.55;;
48999;SDS011;34808;48.144;17.158;2022-11-20T08:07:38;54.22;;;29.52;;
48999;SDS011;34808;48.144;17.158;2022-11-20T08:10:05;53.60;;;28.83;;
48999;SDS011;34808;48.144;17.158;2022-11-20T08:12:31;50.20;;;29.33;;
48999;SDS011;34808;48.144;17.158;2022-11-20T08:15:15;50.38;;;29.02;;
48999;SDS011;34808;48.144;17.158;2022-11-20T08:17:41;53.40;;;27.25;;
48999;SDS011;34808;48.144;17.158;2022-11-20T08:20:06;48.63;;;28.05;;
48999;SDS011;34808;48.144;17.158;2022-11-20T08:22:32;45.38;;;27.23;;
48999;SDS011;34808;48.144;17.158;2022-11-20T08:24:57;44.42;;;26.17;;
48999;SDS011;34808;48.144;17.158;2022-11-20T08:27:22;51.50;;;28.70;;
48999;SDS011;34808;48.144;17.158;2022-11-20T08:29:48;51.45;;;28.83;;
48999;SDS011;34808;48.144;17.158;2022-11-20T08:32:13;50.30;;;28.00;;
48999;SDS011;34808;48.144;17.158;2022-11-20T08:34:38;51.70;;;30.10;;
48999;SDS011;34808;48.144;17.158;2022-11-20T08:37:04;44.55;;;26.35;;
48999;SDS011;34808;48.144;17.158;2022-11-20T08:39:31;51.30;;;28.20;;
48999;SDS011;34808;48.144;17.158;2022-11-20T08:41:57;39.50;;;24.60;;
48999;SDS011;34808;48.144;17.158;2022-11-20T08:44:22;48.40;;;27.30;;
48999;SDS011;34808;48.144;17.158;2022-11-20T08:46:47;43.83;;;26.70;;
48999;SDS011;34808;48.144;17.158;2022-11-20T08:49:13;47.20;;;26.42;;
48999;SDS011;34808;48.144;17.158;2022-11-20T08:51:39;38.58;;;23.98;;
48999;SDS011;34808;48.144;17.158;2022-11-20T08:54:05;38.72;;;23.38;;
48999;SDS011;34808;48.144;17.158;2022-11-20T08:56:30;36.03;;;23.45;;
48999;SDS011;34808;48.144;17.158;2022-11-20T08:58:56;36.40;;;22.98;;
48999;SDS011;34808;48.144;17.158;2022-11-20T09:01:24;38.13;;;24.10;;
48999;SDS011;34808;48.144;17.158;2022-11-20T09:03:49;43.20;;;24.60;;
48999;SDS011;34808;48.144;17.158;2022-11-20T09:06:15;34.63;;;21.25;;
48999;SDS011;34808;48.144;17.158;2022-11-20T09:08:40;41.50;;;24.83;;
48999;SDS011;34808;48.144;17.158;2022-11-20T09:11:06;41.70;;;26.17;;
48999;SDS011;34808;48.144;17.158;2022-11-20T09:13:32;38.67;;;24.23;;
48999;SDS011;34808;48.144;17.158;2022-11-20T09:16:00;44.63;;;23.98;;
48999;SDS011;34808;48.144;17.158;2022-11-20T09:18:27;40.60;;;23.92;;
48999;SDS011;34808;48.144;17.158;2022-11-20T09:20:57;39.15;;;24.75;;
48999;SDS011;34808;48.144;17.158;2022-11-20T09:23:27;42.05;;;26.50;;
48999;SDS011;34808;48.144;17.158;2022-11-20T09:25:56;40.90;;;25.40;;
48999;SDS011;34808;48.144;17.158;2022-11-20T09:28:24;38.65;;;23.15;;
48999;SDS011;34808;48.144;17.158;2022-11-20T09:30:50;41.80;;;24.30;;
48999;SDS011;34808;48.144;17.158;2022-11-20T09:33:15;39.63;;;22.73;;
48999;SDS011;34808;48.144;17.158;2022-11-20T09:35:41;41.28;;;24.25;;
48999;SDS011;34808;48.144;17.158;2022-11-20T09:38:08;40.92;;;25.42;;
48999;SDS011;34808;48.144;17.158;2022-11-20T09:40:35;40.80;;;25.67;;
48999;SDS011;34808;48.144;17.158;2022-11-20T09:54:08;36.20;;;23.33;;
48999;SDS011;34808;48.144;17.158;2022-11-20T09:56:40;43.65;;;24.25;;
48999;SDS011;34808;48.144;17.158;2022-11-20T09:59:23;36.58;;;23.42;;
48999;SDS011;34808;48.144;17.158;2022-11-20T10:01:57;38.13;;;24.75;;
48999;SDS011;34808;48.144;17.158;2022-11-20T10:04:25;36.65;;;23.60;;
48999;SDS011;34808;48.144;17.158;2022-11-20T10:07:02;37.67;;;24.08;;
48999;SDS011;34808;48.144;17.158;2022-11-20T10:09:36;42.92;;;25.67;;
48999;SDS011;34808;48.144;17.158;2022-11-20T10:17:33;39.53;;;24.98;;
48999;SDS011;34808;48.144;17.158;2022-11-20T10:20:14;47.83;;;28.60;;
48999;SDS011;34808;48.144;17.158;2022-11-20T10:22:45;44.80;;;25.73;;
48999;SDS011;34808;48.144;17.158;2022-11-20T10:25:37;43.55;;;26.98;;
48999;SDS011;34808;48.144;17.158;2022-11-20T10:28:24;41.55;;;25.63;;
48999;SDS011;34808;48.144;17.158;2022-11-20T10:31:14;39.05;;;25.42;;
48999;SDS011;34808;48.144;17.158;2022-11-20T10:33:50;43.72;;;26.15;;
48999;SDS011;34808;48.144;17.158;2022-11-20T10:36:19;38.47;;;24.67;;
48999;SDS011;34808;48.144;17.158;2022-11-20T10:38:56;43.00;;;25.88;;
48999;SDS011;34808;48.144;17.158;2022-11-20T10:41:27;42.90;;;27.52;;
48999;SDS011;34808;48.144;17.158;2022-11-20T10:44:05;41.78;;;25.38;;
48999;SDS011;34808;48.144;17.158;2022-11-20T10:46:40;39.75;;;25.77;;
48999;SDS011;34808;48.144;17.158;2022-11-20T10:49:11;40.88;;;24.75;;
48999;SDS011;34808;48.144;17.158;2022-11-20T10:57:38;40.40;;;25.08;;
48999;SDS011;34808;48.144;17.158;2022-11-20T11:00:24;38.17;;;24.45;;
48999;SDS011;34808;48.144;17.158;2022-11-20T11:02:50;44.00;;;25.95;;
48999;SDS011;34808;48.144;17.158;2022-11-20T11:07:45;42.83;;;27.00;;
48999;SDS011;34808;48.144;17.158;2022-11-20T11:10:15;45.88;;;27.83;;
48999;SDS011;34808;48.144;17.158;2022-11-20T11:12:45;49.65;;;30.35;;
48999;SDS011;34808;48.144;17.158;2022-11-20T11:15:58;48.08;;;27.17;;
48999;SDS011;34808;48.144;17.158;2022-11-20T11:18:01;45.13;;;27.63;;
48999;SDS011;34808;48.144;17.158;2022-11-20T11:20:26;52.53;;;27.98;;
48999;SDS011;34808;48.144;17.158;2022-11-20T11:22:53;53.50;;;30.30;;
48999;SDS011;34808;48.144;17.158;2022-11-20T11:25:24;49.85;;;27.95;;
48999;SDS011;34808;48.144;17.158;2022-11-20T11:27:50;47.78;;;27.77;;
48999;SDS011;34808;48.144;17.158;2022-11-20T11:30:17;48.35;;;27.88;;
48999;SDS011;34808;48.144;17.158;2022-11-20T11:32:44;51.45;;;29.25;;
48999;SDS011;34808;48.144;17.158;2022-11-20T11:35:23;49.88;;;27.35;;
48999;SDS011;34808;48.144;17.158;2022-11-20T11:37:52;49.25;;;26.67;;
48999;SDS011;34808;48.144;17.158;2022-11-20T11:40:20;48.58;;;28.90;;
48999;SDS011;34808;48.144;17.158;2022-11-20T11:42:50;47.03;;;26.63;;
48999;SDS011;34808;48.144;17.158;2022-11-20T11:45:19;49.65;;;28.65;;
48999;SDS011;34808;48.144;17.158;2022-11-20T11:47:45;45.58;;;26.55;;
48999;SDS011;34808;48.144;17.158;2022-11-20T11:50:14;42.20;;;26.05;;
48999;SDS011;34808;48.144;17.158;2022-11-20T11:55:35;47.97;;;26.80;;
48999;SDS011;34808;48.144;17.158;2022-11-20T11:58:16;47.28;;;26.17;;
48999;SDS011;34808;48.144;17.158;2022-11-20T12:00:58;45.35;;;27.05;;
48999;SDS011;34808;48.144;17.158;2022-11-20T12:03:39;51.73;;;26.43;;
48999;SDS011;34808;48.144;17.158;2022-11-20T12:06:10;45.20;;;26.00;;
48999;SDS011;34808;48.144;17.158;2022-11-20T12:13:58;53.83;;;28.75;;
48999;SDS011;34808;48.144;17.158;2022-11-20T12:16:30;46.72;;;27.67;;
48999;SDS011;34808;48.144;17.158;2022-11-20T12:19:00;43.80;;;26.55;;
48999;SDS011;34808;48.144;17.158;2022-11-20T12:21:28;49.25;;;30.92;;
48999;SDS011;34808;48.144;17.158;2022-11-20T12:27:18;42.83;;;26.50;;
48999;SDS011;34808;48.144;17.158;2022-11-20T12:30:12;49.00;;;28.40;;
48999;SDS011;34808;48.144;17.158;2022-11-20T12:43:43;44.75;;;27.52;;
48999;SDS011;34808;48.144;17.158;2022-11-20T12:46:50;44.20;;;27.38;;
48999;SDS011;34808;48.144;17.158;2022-11-20T13:00:56;40.40;;;25.90;;
48999;SDS011;34808;48.144;17.158;2022-11-20T13:03:36;38.65;;;24.90;;
48999;SDS011;34808;48.144;17.158;2022-11-20T13:06:12;40.90;;;24.42;;
48999;SDS011;34808;48.144;17.158;2022-11-20T13:08:43;42.47;;;28.33;;
48999;SDS011;34808;48.144;17.158;2022-11-20T13:13:46;51.10;;;27.02;;
48999;SDS011;34808;48.144;17.158;2022-11-20T13:19:15;43.38;;;26.90;;
48999;SDS011;34808;48.144;17.158;2022-11-20T13:21:43;44.85;;;28.25;;
48999;SDS011;34808;48.144;17.158;2022-11-20T13:24:32;43.15;;;28.10;;
48999;SDS011;34808;48.144;17.158;2022-11-20T13:27:01;41.08;;;25.25;;
48999;SDS011;34808;48.144;17.158;2022-11-20T13:29:30;40.47;;;25.73;;
48999;SDS011;34808;48.144;17.158;2022-11-20T13:32:17;38.92;;;24.40;;
48999;SDS011;34808;48.144;17.158;2022-11-20T13:34:55;39.97;;;25.52;;
48999;SDS011;34808;48.144;17.158;2022-11-20T13:43:37;42.70;;;26.90;;
48999;SDS011;34808;48.144;17.158;2022-11-20T13:45:56;39.85;;;25.30;;
48999;SDS011;34808;48.144;17.158;2022-11-20T13:48:24;43.25;;;26.73;;
48999;SDS011;34808;48.144;17.158;2022-11-20T13:50:57;42.10;;;25.80;;
48999;SDS011;34808;48.144;17.158;2022-11-20T13:53:34;40.72;;;25.42;;
48999;SDS011;34808;48.144;17.158;2022-11-20T13:56:09;42.80;;;25.80;;
48999;SDS011;34808;48.144;17.158;2022-11-20T13:58:51;41.30;;;26.05;;
48999;SDS011;34808;48.144;17.158;2022-11-20T14:01:24;39.25;;;23.67;;
48999;SDS011;34808;48.144;17.158;2022-11-20T14:03:54;45.05;;;25.50;;
48999;SDS011;34808;48.144;17.158;2022-11-20T14:06:25;38.55;;;24.80;;
48999;SDS011;34808;48.144;17.158;2022-11-20T14:08:56;33.00;;;23.35;;
48999;SDS011;34808;48.144;17.158;2022-11-20T14:14:04;37.75;;;25.05;;
48999;SDS011;34808;48.144;17.158;2022-11-20T14:16:36;41.35;;;24.52;;
48999;SDS011;34808;48.144;17.158;2022-11-20T14:21:49;34.20;;;23.85;;
48999;SDS011;34808;48.144;17.158;2022-11-20T14:24:39;36.53;;;23.23;;
48999;SDS011;34808;48.144;17.158;2022-11-20T14:27:04;35.00;;;24.02;;
48999;SDS011;34808;48.144;17.158;2022-11-20T14:32:03;37.13;;;23.90;;
48999;SDS011;34808;48.144;17.158;2022-11-20T14:34:30;33.70;;;22.92;;
48999;SDS011;34808;48.144;17.158;2022-11-20T14:36:58;37.72;;;24.90;;
48999;SDS011;34808;48.144;17.158;2022-11-20T14:39:26;36.47;;;22.77;;
48999;SDS011;34808;48.144;17.158;2022-11-20T14:42:01;37.95;;;24.60;;
48999;SDS011;34808;48.144;17.158;2022-11-20T14:44:29;37.75;;;23.67;;
48999;SDS011;34808;48.144;17.158;2022-11-20T14:46:57;39.40;;;24.83;;
48999;SDS011;34808;48.144;17.158;2022-11-20T14:49:25;38.15;;;24.98;;
48999;SDS011;34808;48.144;17.158;2022-11-20T14:52:00;34.95;;;23.77;;
48999;SDS011;34808;48.144;17.158;2022-11-20T14:54:27;37.42;;;24.92;;
48999;SDS011;34808;48.144;17.158;2022-11-20T14:56:54;36.25;;;24.27;;
48999;SDS011;34808;48.144;17.158;2022-11-20T14:59:24;39.22;;;24.85;;
48999;SDS011;34808;48.144;17.158;2022-11-20T15:01:58;41.33;;;25.45;;
48999;SDS011;34808;48.144;17.158;2022-11-20T15:04:25;40.50;;;25.65;;
48999;SDS011;34808;48.144;17.158;2022-11-20T15:06:52;37.50;;;25.30;;
48999;SDS011;34808;48.144;17.158;2022-11-20T15:09:20;35.92;;;23.35;;
48999;SDS011;34808;48.144;17.158;2022-11-20T15:11:55;34.85;;;23.92;;
48999;SDS011;34808;48.144;17.158;2022-11-20T15:14:24;34.83;;;23.27;;
48999;SDS011;34808;48.144;17.158;2022-11-20T15:16:50;33.45;;;22.35;;
48999;SDS011;34808;48.144;17.158;2022-11-20T15:19:18;35.05;;;23.90;;
48999;SDS011;34808;48.144;17.158;2022-11-20T15:21:45;37.67;;;24.67;;
48999;SDS011;34808;48.144;17.158;2022-11-20T15:24:11;40.30;;;25.10;;
48999;SDS011;34808;48.144;17.158;2022-11-20T15:26:36;38.47;;;24.73;;
48999;SDS011;34808;48.144;17.158;2022-11-20T15:29:05;36.00;;;23.92;;
48999;SDS011;34808;48.144;17.158;2022-11-20T15:31:35;37.33;;;24.30;;
48999;SDS011;34808;48.144;17.158;2022-11-20T15:34:00;34.50;;;24.35;;
48999;SDS011;34808;48.144;17.158;2022-11-20T15:36:26;34.40;;;22.27;;
48999;SDS011;34808;48.144;17.158;2022-11-20T15:38:51;39.70;;;24.30;;
48999;SDS011;34808;48.144;17.158;2022-11-20T15:41:16;41.53;;;26.35;;